sensor_id;sensor_type;location;lat;lon;timestamp;P1;durP1;ratioP1;P2;durP2;ratioP2
55989;SDS011;41875;55.806;38.082;2022-11-03T00:01:49;3.47;;;1.90;;
55989;SDS011;41875;55.806;38.082;2022-11-03T00:04:18;2.33;;;1.00;;
55989;SDS011;41875;55.806;38.082;2022-11-03T00:06:49;2.05;;;1.30;;
55989;SDS011;41875;55.806;38.082;2022-11-03T00:09:19;1.10;;;0.90;;
55989;SDS011;41875;55.806;38.082;2022-11-03T00:11:49;2.28;;;1.15;;
55989;SDS011;41875;55.806;38.082;2022-11-03T00:14:18;1.45;;;1.00;;
55989;SDS011;41875;55.806;38.082;2022-11-03T00:19:16;1.25;;;0.90;;
55989;SDS011;41875;55.806;38.082;2022-11-03T00:21:45;4.30;;;1.60;;
55989;SDS011;41875;55.806;38.082;2022-11-03T00:24:13;3.47;;;1.90;;
55989;SDS011;41875;55.806;38.082;2022-11-03T00:26:42;1.80;;;1.40;;
55989;SDS011;41875;55.806;38.082;2022-11-03T00:29:12;3.38;;;1.73;;
55989;SDS011;41875;55.806;38.082;2022-11-03T00:31:42;6.75;;;2.42;;
55989;SDS011;41875;55.806;38.082;2022-11-03T00:34:13;3.33;;;1.30;;
55989;SDS011;41875;55.806;38.082;2022-11-03T00:36:41;2.38;;;1.50;;
55989;SDS011;41875;55.806;38.082;2022-11-03T00:39:11;2.22;;;1.45;;
55989;SDS011;41875;55.806;38.082;2022-11-03T00:41:39;2.35;;;1.20;;
55989;SDS011;41875;55.806;38.082;2022-11-03T00:44:08;2.53;;;1.50;;
55989;SDS011;41875;55.806;38.082;2022-11-03T00:46:39;2.17;;;0.95;;
55989;SDS011;41875;55.806;38.082;2022-11-03T00:49:07;4.75;;;1.60;;
55989;SDS011;41875;55.806;38.082;2022-11-03T00:51:37;3.70;;;1.30;;
55989;SDS011;41875;55.806;38.082;2022-11-03T00:54:06;2.25;;;1.17;;
55989;SDS011;41875;55.806;38.082;2022-11-03T00:59:03;2.47;;;1.25;;
55989;SDS011;41875;55.806;38.082;2022-11-03T01:01:34;2.28;;;1.30;;
55989;SDS011;41875;55.806;38.082;2022-11-03T01:04:11;1.40;;;1.00;;
55989;SDS011;41875;55.806;38.082;2022-11-03T01:06:58;1.80;;;1.27;;
55989;SDS011;41875;55.806;38.082;2022-11-03T01:09:28;2.15;;;1.20;;
55989;SDS011;41875;55.806;38.082;2022-11-03T01:11:58;1.20;;;1.10;;
55989;SDS011;41875;55.806;38.082;2022-11-03T01:14:30;2.22;;;1.00;;
55989;SDS011;41875;55.806;38.082;2022-11-03T01:17:00;1.80;;;1.20;;
55989;SDS011;41875;55.806;38.082;2022-11-03T01:19:29;0.93;;;0.80;;
55989;SDS011;41875;55.806;38.082;2022-11-03T01:21:59;1.40;;;1.00;;
55989;SDS011;41875;55.806;38.082;2022-11-03T01:24:35;1.90;;;1.60;;
55989;SDS011;41875;55.806;38.082;2022-11-03T01:29:32;1.55;;;0.88;;
55989;SDS011;41875;55.806;38.082;2022-11-03T01:32:00;2.08;;;1.10;;
55989;SDS011;41875;55.806;38.082;2022-11-03T01:34:28;1.90;;;1.05;;
55989;SDS011;41875;55.806;38.082;2022-11-03T01:39:27;1.60;;;0.98;;
55989;SDS011;41875;55.806;38.082;2022-11-03T01:41:55;1.80;;;1.00;;
55989;SDS011;41875;55.806;38.082;2022-11-03T01:47:14;1.63;;;1.00;;
55989;SDS011;41875;55.806;38.082;2022-11-03T01:49:49;1.67;;;1.00;;
55989;SDS011;41875;55.806;38.082;2022-11-03T01:52:25;2.40;;;1.15;;
55989;SDS011;41875;55.806;38.082;2022-11-03T01:55:01;2.17;;;1.30;;
55989;SDS011;41875;55.806;38.082;2022-11-03T01:57:33;1.33;;;1.10;;
55989;SDS011;41875;55.806;38.082;2022-11-03T02:00:07;1.92;;;1.00;;
55989;SDS011;41875;55.806;38.082;2022-11-03T02:02:39;1.60;;;0.77;;
55989;SDS011;41875;55.806;38.082;2022-11-03T02:05:07;2.20;;;1.10;;
55989;SDS011;41875;55.806;38.082;2022-11-03T02:07:41;1.20;;;0.85;;
55989;SDS011;41875;55.806;38.082;2022-11-03T02:10:15;1.50;;;1.02;;
55989;SDS011;41875;55.806;38.082;2022-11-03T02:12:44;1.17;;;0.85;;
55989;SDS011;41875;55.806;38.082;2022-11-03T02:15:15;0.77;;;0.70;;
55989;SDS011;41875;55.806;38.082;2022-11-03T02:17:47;2.60;;;0.88;;
55989;SDS011;41875;55.806;38.082;2022-11-03T02:20:20;2.75;;;1.13;;
55989;SDS011;41875;55.806;38.082;2022-11-03T02:23:01;1.60;;;1.00;;
55989;SDS011;41875;55.806;38.082;2022-11-03T02:25:42;4.05;;;1.42;;
55989;SDS011;41875;55.806;38.082;2022-11-03T02:28:11;1.23;;;1.02;;
55989;SDS011;41875;55.806;38.082;2022-11-03T02:30:43;2.35;;;1.30;;
55989;SDS011;41875;55.806;38.082;2022-11-03T02:33:19;3.05;;;1.27;;
55989;SDS011;41875;55.806;38.082;2022-11-03T02:35:57;3.20;;;1.70;;
55989;SDS011;41875;55.806;38.082;2022-11-03T02:38:30;2.45;;;1.13;;
55989;SDS011;41875;55.806;38.082;2022-11-03T02:41:04;1.67;;;1.13;;
55989;SDS011;41875;55.806;38.082;2022-11-03T02:43:35;1.45;;;1.10;;
55989;SDS011;41875;55.806;38.082;2022-11-03T02:46:05;2.60;;;1.38;;
55989;SDS011;41875;55.806;38.082;2022-11-03T02:48:34;1.73;;;1.20;;
55989;SDS011;41875;55.806;38.082;2022-11-03T02:56:05;0.80;;;0.70;;
55989;SDS011;41875;55.806;38.082;2022-11-03T02:58:39;3.70;;;1.65;;
55989;SDS011;41875;55.806;38.082;2022-11-03T03:01:13;1.88;;;1.45;;
55989;SDS011;41875;55.806;38.082;2022-11-03T03:03:53;2.50;;;1.48;;
55989;SDS011;41875;55.806;38.082;2022-11-03T03:06:25;2.42;;;1.65;;
55989;SDS011;41875;55.806;38.082;2022-11-03T03:08:59;2.40;;;1.40;;
55989;SDS011;41875;55.806;38.082;2022-11-03T03:11:32;1.70;;;1.10;;
55989;SDS011;41875;55.806;38.082;2022-11-03T03:14:07;2.65;;;1.10;;
55989;SDS011;41875;55.806;38.082;2022-11-03T03:16:42;2.20;;;1.30;;
55989;SDS011;41875;55.806;38.082;2022-11-03T03:19:25;1.70;;;1.17;;
55989;SDS011;41875;55.806;38.082;2022-11-03T03:22:01;2.83;;;1.50;;
55989;SDS011;41875;55.806;38.082;2022-11-03T03:24:39;2.08;;;1.30;;
55989;SDS011;41875;55.806;38.082;2022-11-03T03:27:16;2.15;;;1.45;;
55989;SDS011;41875;55.806;38.082;2022-11-03T03:29:51;1.35;;;0.80;;
55989;SDS011;41875;55.806;38.082;2022-11-03T03:32:24;2.10;;;1.10;;
55989;SDS011;41875;55.806;38.082;2022-11-03T03:34:55;2.35;;;1.40;;
55989;SDS011;41875;55.806;38.082;2022-11-03T03:37:26;1.60;;;1.20;;
55989;SDS011;41875;55.806;38.082;2022-11-03T03:39:56;1.92;;;1.00;;
55989;SDS011;41875;55.806;38.082;2022-11-03T03:42:31;0.90;;;0.90;;
55989;SDS011;41875;55.806;38.082;2022-11-03T03:45:03;2.58;;;1.25;;
55989;SDS011;41875;55.806;38.082;2022-11-03T03:47:38;0.90;;;0.75;;
55989;SDS011;41875;55.806;38.082;2022-11-03T03:50:07;2.30;;;1.60;;
55989;SDS011;41875;55.806;38.082;2022-11-03T03:52:35;1.58;;;1.27;;
55989;SDS011;41875;55.806;38.082;2022-11-03T03:55:05;1.67;;;1.15;;
55989;SDS011;41875;55.806;38.082;2022-11-03T03:57:41;1.38;;;1.00;;
55989;SDS011;41875;55.806;38.082;2022-11-03T04:00:11;2.05;;;1.30;;
55989;SDS011;41875;55.806;38.082;2022-11-03T04:02:42;1.83;;;1.20;;
55989;SDS011;41875;55.806;38.082;2022-11-03T04:05:11;1.50;;;1.08;;
55989;SDS011;41875;55.806;38.082;2022-11-03T04:07:39;2.33;;;1.33;;
55989;SDS011;41875;55.806;38.082;2022-11-03T04:10:14;2.58;;;1.23;;
55989;SDS011;41875;55.806;38.082;2022-11-03T04:12:45;1.58;;;1.05;;
55989;SDS011;41875;55.806;38.082;2022-11-03T04:15:32;3.40;;;1.60;;
55989;SDS011;41875;55.806;38.082;2022-11-03T04:18:19;1.58;;;1.10;;
55989;SDS011;41875;55.806;38.082;2022-11-03T04:21:08;1.15;;;0.80;;
55989;SDS011;41875;55.806;38.082;2022-11-03T04:23:57;1.42;;;0.93;;
55989;SDS011;41875;55.806;38.082;2022-11-03T04:26:27;2.35;;;1.40;;
55989;SDS011;41875;55.806;38.082;2022-11-03T04:31:27;1.48;;;0.95;;
55989;SDS011;41875;55.806;38.082;2022-11-03T04:34:03;1.35;;;0.75;;
55989;SDS011;41875;55.806;38.082;2022-11-03T04:36:37;1.33;;;0.90;;
55989;SDS011;41875;55.806;38.082;2022-11-03T04:39:08;1.48;;;0.77;;
55989;SDS011;41875;55.806;38.082;2022-11-03T04:41:44;1.73;;;1.10;;
55989;SDS011;41875;55.806;38.082;2022-11-03T04:46:43;1.10;;;0.88;;
55989;SDS011;41875;55.806;38.082;2022-11-03T04:49:15;1.15;;;0.88;;
55989;SDS011;41875;55.806;38.082;2022-11-03T04:51:49;2.53;;;1.27;;
55989;SDS011;41875;55.806;38.082;2022-11-03T04:54:18;3.28;;;1.00;;
55989;SDS011;41875;55.806;38.082;2022-11-03T04:56:50;2.90;;;1.17;;
55989;SDS011;41875;55.806;38.082;2022-11-03T04:59:22;2.22;;;1.40;;
55989;SDS011;41875;55.806;38.082;2022-11-03T05:01:52;2.58;;;1.20;;
55989;SDS011;41875;55.806;38.082;2022-11-03T05:04:20;1.58;;;1.00;;
55989;SDS011;41875;55.806;38.082;2022-11-03T05:06:49;3.92;;;1.50;;
55989;SDS011;41875;55.806;38.082;2022-11-03T05:09:25;1.52;;;0.90;;
55989;SDS011;41875;55.806;38.082;2022-11-03T05:11:58;3.55;;;1.38;;
55989;SDS011;41875;55.806;38.082;2022-11-03T05:14:28;1.33;;;0.98;;
55989;SDS011;41875;55.806;38.082;2022-11-03T05:16:58;1.23;;;0.90;;
55989;SDS011;41875;55.806;38.082;2022-11-03T05:19:30;0.90;;;0.73;;
55989;SDS011;41875;55.806;38.082;2022-11-03T05:23:01;4.22;;;2.20;;
55989;SDS011;41875;55.806;38.082;2022-11-03T05:25:34;8.00;;;2.83;;
55989;SDS011;41875;55.806;38.082;2022-11-03T05:28:13;3.97;;;1.80;;
55989;SDS011;41875;55.806;38.082;2022-11-03T05:30:49;4.13;;;1.67;;
55989;SDS011;41875;55.806;38.082;2022-11-03T05:33:20;3.08;;;1.70;;
55989;SDS011;41875;55.806;38.082;2022-11-03T05:35:52;2.40;;;1.40;;
55989;SDS011;41875;55.806;38.082;2022-11-03T05:38:22;1.90;;;1.08;;
55989;SDS011;41875;55.806;38.082;2022-11-03T05:40:51;3.00;;;1.40;;
55989;SDS011;41875;55.806;38.082;2022-11-03T05:43:21;1.08;;;0.80;;
55989;SDS011;41875;55.806;38.082;2022-11-03T05:45:54;4.20;;;1.48;;
55989;SDS011;41875;55.806;38.082;2022-11-03T05:48:27;4.45;;;1.70;;
55989;SDS011;41875;55.806;38.082;2022-11-03T05:51:00;1.00;;;0.90;;
55989;SDS011;41875;55.806;38.082;2022-11-03T05:53:39;3.58;;;1.67;;
55989;SDS011;41875;55.806;38.082;2022-11-03T05:56:09;3.72;;;1.60;;
55989;SDS011;41875;55.806;38.082;2022-11-03T05:58:44;3.33;;;1.50;;
55989;SDS011;41875;55.806;38.082;2022-11-03T06:01:18;3.28;;;1.95;;
55989;SDS011;41875;55.806;38.082;2022-11-03T06:03:50;3.53;;;1.45;;
55989;SDS011;41875;55.806;38.082;2022-11-03T06:08:57;1.35;;;0.90;;
55989;SDS011;41875;55.806;38.082;2022-11-03T06:11:27;5.65;;;2.13;;
55989;SDS011;41875;55.806;38.082;2022-11-03T06:13:59;5.65;;;2.17;;
55989;SDS011;41875;55.806;38.082;2022-11-03T06:16:39;7.53;;;2.78;;
55989;SDS011;41875;55.806;38.082;2022-11-03T06:19:15;7.82;;;2.80;;
55989;SDS011;41875;55.806;38.082;2022-11-03T06:21:49;6.47;;;2.05;;
55989;SDS011;41875;55.806;38.082;2022-11-03T06:24:20;4.13;;;1.63;;
55989;SDS011;41875;55.806;38.082;2022-11-03T06:26:51;3.85;;;1.20;;
55989;SDS011;41875;55.806;38.082;2022-11-03T06:29:20;2.80;;;1.38;;
55989;SDS011;41875;55.806;38.082;2022-11-03T06:31:51;2.30;;;1.30;;
55989;SDS011;41875;55.806;38.082;2022-11-03T06:34:32;2.95;;;1.40;;
55989;SDS011;41875;55.806;38.082;2022-11-03T06:37:10;15.10;;;5.40;;
55989;SDS011;41875;55.806;38.082;2022-11-03T06:39:46;3.00;;;1.30;;
55989;SDS011;41875;55.806;38.082;2022-11-03T06:42:15;3.03;;;1.63;;
55989;SDS011;41875;55.806;38.082;2022-11-03T06:44:56;3.83;;;1.63;;
55989;SDS011;41875;55.806;38.082;2022-11-03T06:47:28;2.28;;;1.30;;
55989;SDS011;41875;55.806;38.082;2022-11-03T06:49:58;3.25;;;1.60;;
55989;SDS011;41875;55.806;38.082;2022-11-03T06:52:30;2.88;;;1.63;;
55989;SDS011;41875;55.806;38.082;2022-11-03T06:57:57;3.47;;;1.20;;
55989;SDS011;41875;55.806;38.082;2022-11-03T07:00:28;4.53;;;1.30;;
55989;SDS011;41875;55.806;38.082;2022-11-03T07:03:05;1.80;;;1.05;;
55989;SDS011;41875;55.806;38.082;2022-11-03T07:05:36;1.17;;;0.90;;
55989;SDS011;41875;55.806;38.082;2022-11-03T07:08:12;4.43;;;1.42;;
55989;SDS011;41875;55.806;38.082;2022-11-03T07:10:47;2.83;;;1.27;;
55989;SDS011;41875;55.806;38.082;2022-11-03T07:13:18;3.53;;;1.35;;
55989;SDS011;41875;55.806;38.082;2022-11-03T07:15:50;3.03;;;1.75;;
55989;SDS011;41875;55.806;38.082;2022-11-03T07:20:52;9.05;;;1.80;;
55989;SDS011;41875;55.806;38.082;2022-11-03T07:23:23;7.45;;;3.35;;
55989;SDS011;41875;55.806;38.082;2022-11-03T07:25:55;3.00;;;1.73;;
55989;SDS011;41875;55.806;38.082;2022-11-03T07:28:32;4.88;;;1.77;;
55989;SDS011;41875;55.806;38.082;2022-11-03T07:31:09;1.77;;;1.10;;
55989;SDS011;41875;55.806;38.082;2022-11-03T07:33:43;3.30;;;1.25;;
55989;SDS011;41875;55.806;38.082;2022-11-03T07:36:14;4.53;;;2.13;;
55989;SDS011;41875;55.806;38.082;2022-11-03T07:38:46;5.60;;;2.38;;
55989;SDS011;41875;55.806;38.082;2022-11-03T07:41:18;1.33;;;0.98;;
55989;SDS011;41875;55.806;38.082;2022-11-03T07:43:52;2.95;;;1.65;;
55989;SDS011;41875;55.806;38.082;2022-11-03T07:46:23;3.28;;;1.73;;
55989;SDS011;41875;55.806;38.082;2022-11-03T07:48:54;5.15;;;1.90;;
55989;SDS011;41875;55.806;38.082;2022-11-03T07:51:26;6.43;;;2.55;;
55989;SDS011;41875;55.806;38.082;2022-11-03T07:53:57;5.10;;;1.95;;
55989;SDS011;41875;55.806;38.082;2022-11-03T07:56:32;5.05;;;2.28;;
55989;SDS011;41875;55.806;38.082;2022-11-03T07:59:04;4.72;;;1.98;;
55989;SDS011;41875;55.806;38.082;2022-11-03T08:01:42;3.92;;;1.70;;
55989;SDS011;41875;55.806;38.082;2022-11-03T08:04:15;5.05;;;2.67;;
55989;SDS011;41875;55.806;38.082;2022-11-03T08:06:46;6.43;;;2.33;;
55989;SDS011;41875;55.806;38.082;2022-11-03T08:09:15;4.68;;;2.40;;
55989;SDS011;41875;55.806;38.082;2022-11-03T08:11:44;6.63;;;2.70;;
55989;SDS011;41875;55.806;38.082;2022-11-03T08:14:12;3.85;;;2.08;;
55989;SDS011;41875;55.806;38.082;2022-11-03T08:16:41;3.88;;;2.03;;
55989;SDS011;41875;55.806;38.082;2022-11-03T08:19:09;3.70;;;1.98;;
55989;SDS011;41875;55.806;38.082;2022-11-03T08:21:43;4.43;;;2.28;;
55989;SDS011;41875;55.806;38.082;2022-11-03T08:24:16;4.85;;;1.92;;
55989;SDS011;41875;55.806;38.082;2022-11-03T08:26:47;4.45;;;2.00;;
55989;SDS011;41875;55.806;38.082;2022-11-03T08:29:16;7.10;;;2.28;;
55989;SDS011;41875;55.806;38.082;2022-11-03T08:34:13;4.57;;;2.10;;
55989;SDS011;41875;55.806;38.082;2022-11-03T08:36:42;5.78;;;2.25;;
55989;SDS011;41875;55.806;38.082;2022-11-03T08:39:11;5.22;;;2.22;;
55989;SDS011;41875;55.806;38.082;2022-11-03T08:44:08;4.35;;;2.08;;
55989;SDS011;41875;55.806;38.082;2022-11-03T08:46:36;6.22;;;2.83;;
55989;SDS011;41875;55.806;38.082;2022-11-03T08:49:05;4.35;;;2.22;;
55989;SDS011;41875;55.806;38.082;2022-11-03T08:51:33;4.15;;;2.10;;
55989;SDS011;41875;55.806;38.082;2022-11-03T08:54:11;3.83;;;2.05;;
55989;SDS011;41875;55.806;38.082;2022-11-03T08:56:42;4.07;;;1.60;;
55989;SDS011;41875;55.806;38.082;2022-11-03T08:59:17;3.92;;;2.08;;
55989;SDS011;41875;55.806;38.082;2022-11-03T09:01:47;7.65;;;3.03;;
55989;SDS011;41875;55.806;38.082;2022-11-03T09:04:16;3.88;;;1.90;;
55989;SDS011;41875;55.806;38.082;2022-11-03T09:06:50;6.00;;;2.30;;
55989;SDS011;41875;55.806;38.082;2022-11-03T09:09:23;4.72;;;2.17;;
55989;SDS011;41875;55.806;38.082;2022-11-03T09:12:12;3.25;;;1.63;;
55989;SDS011;41875;55.806;38.082;2022-11-03T09:14:42;3.90;;;1.48;;
55989;SDS011;41875;55.806;38.082;2022-11-03T09:17:11;5.60;;;1.85;;
55989;SDS011;41875;55.806;38.082;2022-11-03T09:19:41;6.20;;;3.25;;
55989;SDS011;41875;55.806;38.082;2022-11-03T09:22:10;5.15;;;2.42;;
55989;SDS011;41875;55.806;38.082;2022-11-03T09:24:42;5.05;;;2.67;;
55989;SDS011;41875;55.806;38.082;2022-11-03T09:27:11;4.03;;;2.20;;
55989;SDS011;41875;55.806;38.082;2022-11-03T09:29:41;3.00;;;1.73;;
55989;SDS011;41875;55.806;38.082;2022-11-03T09:32:32;3.60;;;1.65;;
55989;SDS011;41875;55.806;38.082;2022-11-03T09:35:02;3.53;;;1.88;;
55989;SDS011;41875;55.806;38.082;2022-11-03T09:37:32;3.38;;;1.50;;
55989;SDS011;41875;55.806;38.082;2022-11-03T09:40:04;4.47;;;1.85;;
55989;SDS011;41875;55.806;38.082;2022-11-03T09:42:35;5.15;;;2.00;;
55989;SDS011;41875;55.806;38.082;2022-11-03T09:45:06;4.10;;;2.10;;
55989;SDS011;41875;55.806;38.082;2022-11-03T09:47:39;7.45;;;2.53;;
55989;SDS011;41875;55.806;38.082;2022-11-03T09:50:11;3.97;;;1.80;;
55989;SDS011;41875;55.806;38.082;2022-11-03T09:52:45;3.92;;;2.03;;
55989;SDS011;41875;55.806;38.082;2022-11-03T09:55:20;4.90;;;2.40;;
55989;SDS011;41875;55.806;38.082;2022-11-03T09:57:52;5.72;;;1.60;;
55989;SDS011;41875;55.806;38.082;2022-11-03T10:00:22;4.00;;;1.83;;
55989;SDS011;41875;55.806;38.082;2022-11-03T10:02:53;4.53;;;2.08;;
55989;SDS011;41875;55.806;38.082;2022-11-03T10:05:23;3.35;;;1.80;;
55989;SDS011;41875;55.806;38.082;2022-11-03T10:07:56;3.47;;;2.13;;
55989;SDS011;41875;55.806;38.082;2022-11-03T10:10:33;5.60;;;2.20;;
55989;SDS011;41875;55.806;38.082;2022-11-03T10:13:03;5.60;;;2.10;;
55989;SDS011;41875;55.806;38.082;2022-11-03T10:15:39;8.18;;;2.70;;
55989;SDS011;41875;55.806;38.082;2022-11-03T10:18:08;6.47;;;3.05;;
55989;SDS011;41875;55.806;38.082;2022-11-03T10:20:36;4.68;;;2.60;;
55989;SDS011;41875;55.806;38.082;2022-11-03T10:23:07;3.20;;;1.63;;
55989;SDS011;41875;55.806;38.082;2022-11-03T10:25:37;4.03;;;2.42;;
55989;SDS011;41875;55.806;38.082;2022-11-03T10:30:54;4.15;;;1.77;;
55989;SDS011;41875;55.806;38.082;2022-11-03T10:33:39;5.05;;;1.80;;
55989;SDS011;41875;55.806;38.082;2022-11-03T10:36:21;3.58;;;1.92;;
55989;SDS011;41875;55.806;38.082;2022-11-03T10:38:51;3.85;;;1.88;;
55989;SDS011;41875;55.806;38.082;2022-11-03T10:41:26;4.00;;;2.20;;
55989;SDS011;41875;55.806;38.082;2022-11-03T10:43:59;4.72;;;2.03;;
55989;SDS011;41875;55.806;38.082;2022-11-03T10:46:33;3.65;;;1.60;;
55989;SDS011;41875;55.806;38.082;2022-11-03T10:49:16;1.77;;;1.35;;
55989;SDS011;41875;55.806;38.082;2022-11-03T10:51:47;4.20;;;1.70;;
55989;SDS011;41875;55.806;38.082;2022-11-03T10:54:17;4.15;;;2.08;;
55989;SDS011;41875;55.806;38.082;2022-11-03T10:56:49;5.35;;;2.25;;
55989;SDS011;41875;55.806;38.082;2022-11-03T10:59:19;5.85;;;2.25;;
55989;SDS011;41875;55.806;38.082;2022-11-03T11:01:49;3.72;;;2.30;;
55989;SDS011;41875;55.806;38.082;2022-11-03T11:04:18;4.30;;;2.10;;
55989;SDS011;41875;55.806;38.082;2022-11-03T11:06:48;2.47;;;1.33;;
55989;SDS011;41875;55.806;38.082;2022-11-03T11:11:59;4.28;;;1.90;;
55989;SDS011;41875;55.806;38.082;2022-11-03T11:14:33;3.08;;;1.52;;
55989;SDS011;41875;55.806;38.082;2022-11-03T11:17:12;2.88;;;1.65;;
55989;SDS011;41875;55.806;38.082;2022-11-03T11:44:46;3.30;;;1.95;;
55989;SDS011;41875;55.806;38.082;2022-11-03T11:47:29;4.30;;;2.20;;
55989;SDS011;41875;55.806;38.082;2022-11-03T11:50:02;1.98;;;1.58;;
55989;SDS011;41875;55.806;38.082;2022-11-03T11:52:45;5.38;;;2.42;;
55989;SDS011;41875;55.806;38.082;2022-11-03T11:55:17;4.10;;;1.70;;
55989;SDS011;41875;55.806;38.082;2022-11-03T11:57:49;3.67;;;1.88;;
55989;SDS011;41875;55.806;38.082;2022-11-03T12:00:21;3.00;;;1.95;;
55989;SDS011;41875;55.806;38.082;2022-11-03T12:02:51;6.15;;;1.92;;
55989;SDS011;41875;55.806;38.082;2022-11-03T12:05:22;5.03;;;2.10;;
55989;SDS011;41875;55.806;38.082;2022-11-03T12:07:53;4.63;;;2.40;;
55989;SDS011;41875;55.806;38.082;2022-11-03T12:10:22;5.95;;;2.83;;
55989;SDS011;41875;55.806;38.082;2022-11-03T12:12:53;5.05;;;2.25;;
55989;SDS011;41875;55.806;38.082;2022-11-03T12:21:07;3.22;;;1.58;;
55989;SDS011;41875;55.806;38.082;2022-11-03T12:23:38;3.13;;;1.50;;
55989;SDS011;41875;55.806;38.082;2022-11-03T12:26:13;3.70;;;2.00;;
55989;SDS011;41875;55.806;38.082;2022-11-03T12:28:43;5.88;;;2.13;;
55989;SDS011;41875;55.806;38.082;2022-11-03T12:31:12;4.00;;;1.83;;
55989;SDS011;41875;55.806;38.082;2022-11-03T12:33:42;5.05;;;1.73;;
55989;SDS011;41875;55.806;38.082;2022-11-03T12:36:14;6.40;;;2.03;;
55989;SDS011;41875;55.806;38.082;2022-11-03T12:39:09;2.00;;;1.40;;
55989;SDS011;41875;55.806;38.082;2022-11-03T12:41:37;6.80;;;1.70;;
55989;SDS011;41875;55.806;38.082;2022-11-03T12:46:35;4.60;;;1.35;;
55989;SDS011;41875;55.806;38.082;2022-11-03T12:49:07;3.13;;;1.80;;
55989;SDS011;41875;55.806;38.082;2022-11-03T12:51:35;5.55;;;2.08;;
55989;SDS011;41875;55.806;38.082;2022-11-03T12:54:04;3.17;;;1.38;;
55989;SDS011;41875;55.806;38.082;2022-11-03T12:56:35;1.75;;;0.98;;
55989;SDS011;41875;55.806;38.082;2022-11-03T12:59:04;2.13;;;1.08;;
55989;SDS011;41875;55.806;38.082;2022-11-03T13:01:34;4.68;;;1.83;;
55989;SDS011;41875;55.806;38.082;2022-11-03T13:04:05;2.20;;;1.27;;
55989;SDS011;41875;55.806;38.082;2022-11-03T13:06:37;6.25;;;2.20;;
55989;SDS011;41875;55.806;38.082;2022-11-03T13:09:06;1.67;;;1.00;;
55989;SDS011;41875;55.806;38.082;2022-11-03T13:14:20;2.88;;;1.58;;
55989;SDS011;41875;55.806;38.082;2022-11-03T13:19:21;5.30;;;2.22;;
55989;SDS011;41875;55.806;38.082;2022-11-03T13:21:49;2.10;;;1.38;;
55989;SDS011;41875;55.806;38.082;2022-11-03T13:24:18;2.42;;;1.70;;
55989;SDS011;41875;55.806;38.082;2022-11-03T13:26:46;5.85;;;2.35;;
55989;SDS011;41875;55.806;38.082;2022-11-03T13:29:15;4.97;;;1.92;;
55989;SDS011;41875;55.806;38.082;2022-11-03T13:31:44;4.10;;;1.90;;
55989;SDS011;41875;55.806;38.082;2022-11-03T13:36:44;5.82;;;2.15;;
55989;SDS011;41875;55.806;38.082;2022-11-03T13:39:13;4.38;;;1.50;;
55989;SDS011;41875;55.806;38.082;2022-11-03T13:41:42;5.95;;;2.08;;
55989;SDS011;41875;55.806;38.082;2022-11-03T13:44:11;5.82;;;2.67;;
55989;SDS011;41875;55.806;38.082;2022-11-03T13:46:39;5.05;;;2.22;;
55989;SDS011;41875;55.806;38.082;2022-11-03T13:54:26;2.83;;;1.48;;
55989;SDS011;41875;55.806;38.082;2022-11-03T13:57:18;8.35;;;2.85;;
55989;SDS011;41875;55.806;38.082;2022-11-03T14:00:09;6.78;;;2.47;;
55989;SDS011;41875;55.806;38.082;2022-11-03T14:02:40;7.20;;;2.88;;
55989;SDS011;41875;55.806;38.082;2022-11-03T14:05:29;5.93;;;2.03;;
55989;SDS011;41875;55.806;38.082;2022-11-03T14:08:02;5.50;;;2.63;;
55989;SDS011;41875;55.806;38.082;2022-11-03T14:10:31;8.00;;;2.72;;
55989;SDS011;41875;55.806;38.082;2022-11-03T14:13:00;9.63;;;2.33;;
55989;SDS011;41875;55.806;38.082;2022-11-03T14:15:31;6.18;;;2.90;;
55989;SDS011;41875;55.806;38.082;2022-11-03T14:18:03;4.78;;;2.30;;
55989;SDS011;41875;55.806;38.082;2022-11-03T14:20:31;5.97;;;2.67;;
55989;SDS011;41875;55.806;38.082;2022-11-03T14:23:01;5.25;;;2.25;;
55989;SDS011;41875;55.806;38.082;2022-11-03T14:25:30;3.58;;;1.77;;
55989;SDS011;41875;55.806;38.082;2022-11-03T14:27:59;5.03;;;2.03;;
55989;SDS011;41875;55.806;38.082;2022-11-03T14:32:57;2.17;;;1.10;;
55989;SDS011;41875;55.806;38.082;2022-11-03T14:35:26;3.33;;;1.77;;
55989;SDS011;41875;55.806;38.082;2022-11-03T14:37:55;4.82;;;2.03;;
55989;SDS011;41875;55.806;38.082;2022-11-03T14:40:26;4.85;;;2.28;;
55989;SDS011;41875;55.806;38.082;2022-11-03T14:43:12;5.13;;;1.70;;
55989;SDS011;41875;55.806;38.082;2022-11-03T14:48:11;5.72;;;2.13;;
55989;SDS011;41875;55.806;38.082;2022-11-03T14:50:39;4.38;;;1.60;;
55989;SDS011;41875;55.806;38.082;2022-11-03T14:53:11;4.60;;;1.77;;
55989;SDS011;41875;55.806;38.082;2022-11-03T14:58:09;6.85;;;2.30;;
55989;SDS011;41875;55.806;38.082;2022-11-03T15:03:06;4.03;;;1.83;;
55989;SDS011;41875;55.806;38.082;2022-11-03T15:05:35;3.30;;;1.63;;
55989;SDS011;41875;55.806;38.082;2022-11-03T15:08:14;3.47;;;1.85;;
55989;SDS011;41875;55.806;38.082;2022-11-03T15:10:46;4.22;;;1.58;;
55989;SDS011;41875;55.806;38.082;2022-11-03T15:13:15;2.55;;;1.38;;
55989;SDS011;41875;55.806;38.082;2022-11-03T15:18:12;4.55;;;2.00;;
55989;SDS011;41875;55.806;38.082;2022-11-03T15:23:12;7.43;;;2.95;;
55989;SDS011;41875;55.806;38.082;2022-11-03T15:26:10;6.55;;;3.13;;
55989;SDS011;41875;55.806;38.082;2022-11-03T15:28:39;6.95;;;2.65;;
55989;SDS011;41875;55.806;38.082;2022-11-03T15:31:11;5.22;;;2.30;;
55989;SDS011;41875;55.806;38.082;2022-11-03T15:33:40;5.93;;;2.80;;
55989;SDS011;41875;55.806;38.082;2022-11-03T15:36:16;5.53;;;2.00;;
55989;SDS011;41875;55.806;38.082;2022-11-03T15:41:15;5.40;;;2.13;;
55989;SDS011;41875;55.806;38.082;2022-11-03T15:43:46;6.07;;;2.67;;
55989;SDS011;41875;55.806;38.082;2022-11-03T15:46:16;4.03;;;2.05;;
55989;SDS011;41875;55.806;38.082;2022-11-03T15:48:49;7.13;;;2.90;;
55989;SDS011;41875;55.806;38.082;2022-11-03T15:51:20;6.68;;;2.90;;
55989;SDS011;41875;55.806;38.082;2022-11-03T15:53:48;7.93;;;3.47;;
55989;SDS011;41875;55.806;38.082;2022-11-03T15:56:31;5.68;;;2.13;;
55989;SDS011;41875;55.806;38.082;2022-11-03T15:58:59;5.82;;;2.17;;
55989;SDS011;41875;55.806;38.082;2022-11-03T16:01:28;6.28;;;2.25;;
55989;SDS011;41875;55.806;38.082;2022-11-03T16:03:57;4.90;;;2.05;;
55989;SDS011;41875;55.806;38.082;2022-11-03T16:06:26;4.88;;;1.85;;
55989;SDS011;41875;55.806;38.082;2022-11-03T16:09:15;6.50;;;2.75;;
55989;SDS011;41875;55.806;38.082;2022-11-03T16:11:46;8.25;;;2.22;;
55989;SDS011;41875;55.806;38.082;2022-11-03T16:14:14;6.57;;;1.65;;
55989;SDS011;41875;55.806;38.082;2022-11-03T16:16:43;7.60;;;2.70;;
55989;SDS011;41875;55.806;38.082;2022-11-03T16:19:12;5.50;;;2.20;;
55989;SDS011;41875;55.806;38.082;2022-11-03T16:21:48;4.30;;;2.08;;
55989;SDS011;41875;55.806;38.082;2022-11-03T16:24:17;4.32;;;2.22;;
55989;SDS011;41875;55.806;38.082;2022-11-03T16:26:47;8.35;;;3.55;;
55989;SDS011;41875;55.806;38.082;2022-11-03T16:29:16;7.15;;;3.08;;
55989;SDS011;41875;55.806;38.082;2022-11-03T16:31:45;7.45;;;3.40;;
55989;SDS011;41875;55.806;38.082;2022-11-03T16:34:18;7.78;;;3.45;;
55989;SDS011;41875;55.806;38.082;2022-11-03T16:39:15;6.43;;;2.92;;
55989;SDS011;41875;55.806;38.082;2022-11-03T16:41:44;8.93;;;3.55;;
55989;SDS011;41875;55.806;38.082;2022-11-03T16:44:14;8.23;;;3.50;;
55989;SDS011;41875;55.806;38.082;2022-11-03T16:46:43;8.75;;;4.25;;
55989;SDS011;41875;55.806;38.082;2022-11-03T16:49:12;11.85;;;4.07;;
55989;SDS011;41875;55.806;38.082;2022-11-03T16:54:09;10.20;;;4.57;;